Haukur — OZ2119 — position and weather

sailwx.info

Track history (hours):
 
Tides and Currents Weather Stations Pressure Air Temp Water Temp Dewpoint Dewpoint Depression Visibility Wind Speed Wind Dir Waves Ship Positions

Haukur

Last reported at 2015-May-23 06:33 UTC. Time now 2015-May-23 07:18 UTC.
Position N 57°14' E 011°38'.

Length 75 m; draft 6.2 m.

Type: Cargo ship. MMSI: 231812000.

Date/timePositionNaut miles runAvg speedWind from/ knotsBaromVisibWave heightAir tempDewpointWater temp
2015-May-23 06:33N 57°14' E 011°38'8 7.7
2015-May-23 05:33N 57°07' E 011°44'8 7.7
2015-May-23 04:33N 57°00' E 011°50'7 7.5
2015-May-23 03:33N 56°53' E 011°55'7 7.1
2015-May-23 02:33N 56°47' E 012°00'7 7.3
2015-May-23 01:33N 56°40' E 012°07'7 7.4
2015-May-23 00:33N 56°33' E 012°11'7 7.1
2015-May-22 23:33N 56°27' E 012°17'8 7.6
2015-May-22 22:33N 56°20' E 012°22'9 8.9
2015-May-22 21:33N 56°12' E 012°29'10 9.9
2015-May-22 20:33N 56°04' E 012°39'9 9.1
2015-May-22 19:33N 55°55' E 012°44'9 9.2
2015-May-22 18:33N 55°46' E 012°42'9 9.4
2015-May-22 17:33N 55°37' E 012°42'9 8.6
2015-May-22 16:33N 55°28' E 012°43'8 8.5
2015-May-22 15:33N 55°20' E 012°41'8 7.8
2015-May-22 14:33N 55°16' E 012°53'8 8.2
2015-May-22 13:33N 55°16' E 013°07'8 8.1
2015-May-22 12:33N 55°15' E 013°22'8 8.1
2015-May-22 11:33N 55°15' E 013°36'9 8.4
2015-May-22 10:30N 55°14' E 013°51'8 8.6
2015-May-22 09:32N 55°14' E 014°06'7 7.6
2015-May-22 08:33N 55°15' E 014°19'9 8.5
2015-May-22 07:31N 55°22' E 014°29'8 8.4
2015-May-22 06:33N 55°28' E 014°39'9 8.6
2015-May-22 05:33N 55°32' E 014°52'9 8.6
2015-May-22 04:33N 55°36' E 015°05'9 8.5
2015-May-22 03:33N 55°41' E 015°18'9 8.6
2015-May-22 02:33N 55°45' E 015°31'17 8.5
2015-May-22 00:33N 55°53' E 015°58'  
2015-May-16 12:12N 56°22' E 016°15'25 1.0
2015-May-15 11:11N 55°58' E 016°03'10 9.4
2015-May-15 10:08N 55°49' E 015°58'5 9.2
2015-May-15 09:33N 55°44' E 015°54'9 9.2
2015-May-15 08:33N 55°35' E 015°47'9 9.2
2015-May-15 07:33N 55°27' E 015°41'9 9.1
2015-May-15 06:33N 55°19' E 015°34'9 9.2
2015-May-15 05:33N 55°10' E 015°27'9 9.0
2015-May-15 04:33N 55°02' E 015°20'9 9.1
2015-May-15 03:33N 54°54' E 015°13'9 9.3
2015-May-15 02:33N 54°46' E 015°05'9 9.2
2015-May-15 01:33N 54°38' E 014°57'10 9.3
2015-May-15 00:28N 54°29' E 014°48'8 9.2
2015-May-14 23:32N 54°22' E 014°40'9 9.3
2015-May-14 22:33N 54°14' E 014°32'9 9.3
2015-May-14 21:33N 54°06' E 014°24'9 9.0
2015-May-14 20:33N 53°59' E 014°16'8 7.6
2015-May-14 19:33N 53°51' E 014°17'9 9.2
2015-May-14 18:33N 53°44' E 014°27'9 9.4
2015-May-14 17:33N 53°36' E 014°35'8 8.1
2015-May-14 16:33N 53°28' E 014°36'1 1.3
2015-May-14 15:33N 53°27' E 014°35'0 0.0
2015-May-14 14:33N 53°27' E 014°35'0 0.0
2015-May-14 13:33N 53°27' E 014°35'0 0.0
2015-May-14 12:33N 53°27' E 014°35'0 0.0
2015-May-14 11:33N 53°27' E 014°35'0 0.0
2015-May-14 10:33N 53°27' E 014°35'0 0.0
2015-May-14 09:33N 53°27' E 014°35'0 0.0
2015-May-14 08:33N 53°27' E 014°35'0 0.0
2015-May-14 07:33N 53°27' E 014°35'0 0.0
2015-May-14 06:33N 53°27' E 014°35'0 0.0
2015-May-14 05:33N 53°27' E 014°35'0 0.0
2015-May-14 04:33N 53°27' E 014°35'0 0.0
2015-May-14 03:33N 53°27' E 014°35'0 0.0
2015-May-14 02:30N 53°27' E 014°35'0 0.0
2015-May-14 01:33N 53°27' E 014°35'0 0.0
2015-May-14 00:30N 53°27' E 014°35'0 0.0
2015-May-13 23:33N 53°27' E 014°35'0 0.0
2015-May-13 22:33N 53°27' E 014°35'0 0.0
2015-May-13 21:33N 53°27' E 014°35'0 0.0
2015-May-13 20:33N 53°27' E 014°35'0 0.0
2015-May-13 19:33N 53°27' E 014°35'0 0.0
2015-May-13 18:33N 53°27' E 014°35'0 0.0
2015-May-13 17:33N 53°27' E 014°35'0 0.0
2015-May-13 16:33N 53°27' E 014°35'0 0.0
2015-May-13 15:33N 53°27' E 014°35'0 0.0
2015-May-13 14:33N 53°27' E 014°35'0 0.0
2015-May-13 13:33N 53°27' E 014°35'0 0.0
2015-May-13 12:33N 53°27' E 014°35'0 0.0
2015-May-13 11:33N 53°27' E 014°35'0 0.0
2015-May-13 10:33N 53°27' E 014°35'0 0.0
2015-May-13 09:33N 53°27' E 014°35'0 0.0
2015-May-13 08:33N 53°27' E 014°35'0 0.0
2015-May-13 07:33N 53°27' E 014°35'  
Track history (hours):
 
Tides and Currents Weather Stations Pressure Air Temp Water Temp Dewpoint Dewpoint Depression Visibility Wind Speed Wind Dir Waves Ship Positions

Haukur

Last reported at 2015-May-23 06:33 UTC. Time now 2015-May-23 07:18 UTC.
Position N 57°14' E 011°38'.

Length 75 m; draft 6.2 m.

Type: Cargo ship. MMSI: 231812000.

Date/timePositionNaut miles runAvg speedWind from/ knotsBaromVisibWave heightAir tempDewpointWater temp
2015-May-23 06:33N 57°14' E 011°38'8 7.7
2015-May-23 05:33N 57°07' E 011°44'8 7.7
2015-May-23 04:33N 57°00' E 011°50'7 7.5
2015-May-23 03:33N 56°53' E 011°55'7 7.1
2015-May-23 02:33N 56°47' E 012°00'7 7.3
2015-May-23 01:33N 56°40' E 012°07'7 7.4
2015-May-23 00:33N 56°33' E 012°11'7 7.1
2015-May-22 23:33N 56°27' E 012°17'8 7.6
2015-May-22 22:33N 56°20' E 012°22'9 8.9
2015-May-22 21:33N 56°12' E 012°29'10 9.9
2015-May-22 20:33N 56°04' E 012°39'9 9.1
2015-May-22 19:33N 55°55' E 012°44'9 9.2
2015-May-22 18:33N 55°46' E 012°42'9 9.4
2015-May-22 17:33N 55°37' E 012°42'9 8.6
2015-May-22 16:33N 55°28' E 012°43'8 8.5
2015-May-22 15:33N 55°20' E 012°41'8 7.8
2015-May-22 14:33N 55°16' E 012°53'8 8.2
2015-May-22 13:33N 55°16' E 013°07'8 8.1
2015-May-22 12:33N 55°15' E 013°22'8 8.1
2015-May-22 11:33N 55°15' E 013°36'9 8.4
2015-May-22 10:30N 55°14' E 013°51'8 8.6
2015-May-22 09:32N 55°14' E 014°06'7 7.6
2015-May-22 08:33N 55°15' E 014°19'9 8.5
2015-May-22 07:31N 55°22' E 014°29'8 8.4
2015-May-22 06:33N 55°28' E 014°39'9 8.6
2015-May-22 05:33N 55°32' E 014°52'9 8.6
2015-May-22 04:33N 55°36' E 015°05'9 8.5
2015-May-22 03:33N 55°41' E 015°18'9 8.6
2015-May-22 02:33N 55°45' E 015°31'17 8.5
2015-May-22 00:33N 55°53' E 015°58'  
2015-May-16 12:12N 56°22' E 016°15'25 1.0
2015-May-15 11:11N 55°58' E 016°03'10 9.4
2015-May-15 10:08N 55°49' E 015°58'5 9.2
2015-May-15 09:33N 55°44' E 015°54'9 9.2
2015-May-15 08:33N 55°35' E 015°47'9 9.2
2015-May-15 07:33N 55°27' E 015°41'9 9.1
2015-May-15 06:33N 55°19' E 015°34'9 9.2
2015-May-15 05:33N 55°10' E 015°27'9 9.0
2015-May-15 04:33N 55°02' E 015°20'9 9.1
2015-May-15 03:33N 54°54' E 015°13'9 9.3
2015-May-15 02:33N 54°46' E 015°05'9 9.2
2015-May-15 01:33N 54°38' E 014°57'10 9.3
2015-May-15 00:28N 54°29' E 014°48'8 9.2
2015-May-14 23:32N 54°22' E 014°40'9 9.3
2015-May-14 22:33N 54°14' E 014°32'9 9.3
2015-May-14 21:33N 54°06' E 014°24'9 9.0
2015-May-14 20:33N 53°59' E 014°16'8 7.6
2015-May-14 19:33N 53°51' E 014°17'9 9.2
2015-May-14 18:33N 53°44' E 014°27'9 9.4
2015-May-14 17:33N 53°36' E 014°35'8 8.1
2015-May-14 16:33N 53°28' E 014°36'1 1.3
2015-May-14 15:33N 53°27' E 014°35'0 0.0
2015-May-14 14:33N 53°27' E 014°35'0 0.0
2015-May-14 13:33N 53°27' E 014°35'0 0.0
2015-May-14 12:33N 53°27' E 014°35'0 0.0
2015-May-14 11:33N 53°27' E 014°35'0 0.0
2015-May-14 10:33N 53°27' E 014°35'0 0.0
2015-May-14 09:33N 53°27' E 014°35'0 0.0
2015-May-14 08:33N 53°27' E 014°35'0 0.0
2015-May-14 07:33N 53°27' E 014°35'0 0.0
2015-May-14 06:33N 53°27' E 014°35'0 0.0
2015-May-14 05:33N 53°27' E 014°35'0 0.0
2015-May-14 04:33N 53°27' E 014°35'0 0.0
2015-May-14 03:33N 53°27' E 014°35'0 0.0
2015-May-14 02:30N 53°27' E 014°35'0 0.0
2015-May-14 01:33N 53°27' E 014°35'0 0.0
2015-May-14 00:30N 53°27' E 014°35'0 0.0
2015-May-13 23:33N 53°27' E 014°35'0 0.0
2015-May-13 22:33N 53°27' E 014°35'0 0.0
2015-May-13 21:33N 53°27' E 014°35'0 0.0
2015-May-13 20:33N 53°27' E 014°35'0 0.0
2015-May-13 19:33N 53°27' E 014°35'0 0.0
2015-May-13 18:33N 53°27' E 014°35'0 0.0
2015-May-13 17:33N 53°27' E 014°35'0 0.0
2015-May-13 16:33N 53°27' E 014°35'0 0.0
2015-May-13 15:33N 53°27' E 014°35'0 0.0
2015-May-13 14:33N 53°27' E 014°35'0 0.0
2015-May-13 13:33N 53°27' E 014°35'0 0.0
2015-May-13 12:33N 53°27' E 014°35'0 0.0
2015-May-13 11:33N 53°27' E 014°35'0 0.0
2015-May-13 10:33N 53°27' E 014°35'0 0.0
2015-May-13 09:33N 53°27' E 014°35'0 0.0
2015-May-13 08:33N 53°27' E 014°35'0 0.0
2015-May-13 07:33N 53°27' E 014°35'  

Dump ship's entire track history